createdAt,value
2018-07-23T00:01:46.375Z,25.90
2018-07-23T00:06:49.563Z,25.90
2018-07-23T00:11:52.795Z,25.80
2018-07-23T00:16:55.997Z,25.80
2018-07-23T00:21:59.190Z,25.80
2018-07-23T00:27:02.379Z,25.70
2018-07-23T00:32:05.575Z,25.70
2018-07-23T00:37:08.816Z,25.70
2018-07-23T00:42:12.018Z,25.60
2018-07-23T00:47:15.231Z,25.60
2018-07-23T00:52:18.431Z,25.60
2018-07-23T00:57:21.626Z,25.50
2018-07-23T01:02:24.851Z,25.50
2018-07-23T01:07:28.047Z,25.50
2018-07-23T01:12:32.532Z,25.50
2018-07-23T01:17:35.754Z,25.40
2018-07-23T01:22:38.972Z,25.40
2018-07-23T01:27:42.194Z,25.40
2018-07-23T01:32:45.414Z,25.30
2018-07-23T01:37:48.637Z,25.30
2018-07-23T01:42:52.009Z,25.30
2018-07-23T01:47:55.214Z,25.20
2018-07-23T01:52:58.394Z,25.20
2018-07-23T01:58:01.563Z,25.20
2018-07-23T02:03:04.935Z,25.20
2018-07-23T02:08:08.119Z,25.20
2018-07-23T02:13:11.347Z,25.10
2018-07-23T02:18:14.592Z,25.10
2018-07-23T02:23:17.787Z,25.10
2018-07-23T02:28:20.988Z,25.10
2018-07-23T02:33:24.202Z,25.00
2018-07-23T02:38:27.410Z,25.00
2018-07-23T02:43:30.603Z,25.00
2018-07-23T02:48:33.949Z,24.90
2018-07-23T02:53:37.352Z,24.90
2018-07-23T02:58:40.552Z,24.90
2018-07-23T03:03:43.752Z,24.90
2018-07-23T03:08:46.992Z,24.90
2018-07-23T03:13:50.207Z,24.80
2018-07-23T03:18:53.395Z,24.80
2018-07-23T03:23:56.595Z,24.80
2018-07-23T03:28:59.778Z,24.70
2018-07-23T03:34:02.971Z,24.70
2018-07-23T03:39:08.186Z,24.70
2018-07-23T03:44:11.395Z,24.70
2018-07-23T03:49:14.609Z,24.70
2018-07-23T03:54:17.934Z,24.60
2018-07-23T04:04:24.100Z,24.60
2018-07-23T04:09:27.298Z,24.50
2018-07-23T04:14:30.499Z,24.50
2018-07-23T04:19:33.670Z,24.50
2018-07-23T04:24:36.842Z,24.50
2018-07-23T04:29:40.014Z,24.50
2018-07-23T04:34:43.174Z,24.40
2018-07-23T04:39:46.356Z,24.40
2018-07-23T04:44:49.544Z,24.40
2018-07-23T04:49:52.725Z,24.40
2018-07-23T04:54:55.907Z,24.40
2018-07-23T04:59:59.220Z,24.40
2018-07-23T05:05:02.387Z,24.30
2018-07-23T05:10:05.569Z,24.30
2018-07-23T05:15:08.771Z,24.30
2018-07-23T05:20:11.953Z,24.30
2018-07-23T05:25:16.159Z,24.30
2018-07-23T05:30:19.326Z,24.30
2018-07-23T05:35:22.495Z,24.30
2018-07-23T05:40:25.659Z,24.30
2018-07-23T05:45:28.835Z,24.30
2018-07-23T05:50:32.031Z,24.30
2018-07-23T05:55:35.204Z,24.30
2018-07-23T06:00:38.385Z,24.40
2018-07-23T06:05:41.566Z,24.30
2018-07-23T06:10:45.675Z,24.40
2018-07-23T06:15:48.900Z,24.40
2018-07-23T06:20:52.098Z,24.40
2018-07-23T06:25:55.302Z,24.40
2018-07-23T06:30:58.512Z,24.50
2018-07-23T06:36:01.740Z,24.50
2018-07-23T06:41:04.946Z,24.50
2018-07-23T06:46:08.150Z,24.60
2018-07-23T06:51:11.343Z,24.60
2018-07-23T06:56:14.547Z,24.70
2018-07-23T07:01:17.755Z,24.70
2018-07-23T07:06:21.027Z,24.80
2018-07-23T07:16:27.158Z,24.80
2018-07-23T07:21:30.575Z,24.90
2018-07-23T07:26:33.799Z,24.90
2018-07-23T07:31:37.223Z,25.00
2018-07-23T07:36:40.427Z,25.10
2018-07-23T07:41:43.640Z,25.10
2018-07-23T07:46:46.838Z,25.10
2018-07-23T07:51:50.036Z,25.20
2018-07-23T07:56:53.235Z,25.30
2018-07-23T08:01:56.450Z,25.40
2018-07-23T08:06:59.666Z,25.40
2018-07-23T08:12:02.890Z,25.50
2018-07-23T08:17:06.230Z,25.60
2018-07-23T08:22:09.399Z,25.60
2018-07-23T08:27:12.610Z,25.70
2018-07-23T08:32:15.823Z,25.80
2018-07-23T08:37:19.058Z,25.90
2018-07-23T08:42:22.238Z,26.00
2018-07-23T08:47:25.419Z,26.10
2018-07-23T08:52:28.597Z,26.20
2018-07-23T08:57:31.783Z,26.20
2018-07-23T09:02:34.976Z,26.30
2018-07-23T09:07:38.151Z,26.40
2018-07-23T09:12:41.376Z,26.50
2018-07-23T09:17:44.582Z,26.60
2018-07-23T09:22:47.786Z,26.70
2018-07-23T09:27:50.993Z,26.80
2018-07-23T09:32:54.191Z,26.90
2018-07-23T09:37:57.411Z,26.90
2018-07-23T09:43:00.631Z,27.10
2018-07-23T09:48:03.851Z,27.20
2018-07-23T09:53:07.051Z,27.30
2018-07-23T09:58:10.259Z,27.40
2018-07-23T10:03:13.514Z,27.50
2018-07-23T10:08:16.655Z,27.60
2018-07-23T10:13:19.888Z,27.60
2018-07-23T10:18:23.075Z,27.70
2018-07-23T10:23:26.267Z,27.80
2018-07-23T10:28:29.458Z,27.90
2018-07-23T10:33:32.656Z,28.00
2018-07-23T10:38:35.843Z,28.10
2018-07-23T10:43:39.051Z,28.20
2018-07-23T10:48:42.252Z,28.30
2018-07-23T10:53:45.456Z,28.40
2018-07-23T10:58:48.659Z,28.50
2018-07-23T11:03:52.067Z,28.50
2018-07-23T11:08:55.275Z,28.60
2018-07-23T11:13:58.471Z,28.70
2018-07-23T11:19:02.095Z,28.80
2018-07-23T11:24:05.390Z,28.90
2018-07-23T11:29:08.503Z,29.00
2018-07-23T11:34:11.687Z,29.10
2018-07-23T11:39:14.855Z,29.20
2018-07-23T11:44:18.035Z,29.30
2018-07-23T11:49:21.207Z,29.40
2018-07-23T11:54:24.491Z,29.50
2018-07-23T11:59:27.676Z,29.60
2018-07-23T12:04:30.966Z,29.60
2018-07-23T12:09:34.027Z,29.70
2018-07-23T12:14:37.251Z,29.70
2018-07-23T12:19:40.451Z,29.80
2018-07-23T12:24:43.654Z,29.80
2018-07-23T12:29:46.848Z,29.90
2018-07-23T12:34:50.052Z,29.90
2018-07-23T12:39:53.340Z,30.00
2018-07-23T12:44:56.454Z,29.90
2018-07-23T12:49:59.673Z,30.00
2018-07-23T12:55:02.879Z,30.00
2018-07-23T13:00:06.224Z,30.00
2018-07-23T13:05:09.438Z,30.10
2018-07-23T13:10:12.723Z,30.10
2018-07-23T13:15:15.938Z,30.10
2018-07-23T13:20:19.150Z,30.10
2018-07-23T13:25:22.363Z,30.10
2018-07-23T13:30:25.551Z,30.10
2018-07-23T13:35:28.759Z,30.10
2018-07-23T13:40:31.955Z,30.20
2018-07-23T13:45:35.191Z,30.10
2018-07-23T13:50:38.390Z,30.20
2018-07-23T13:55:41.590Z,30.20
2018-07-23T14:00:44.798Z,30.20
2018-07-23T14:05:47.994Z,30.30
2018-07-23T14:10:51.206Z,30.30
2018-07-23T14:15:54.406Z,30.20
2018-07-23T14:20:57.614Z,30.30
2018-07-23T14:26:00.834Z,30.30
2018-07-23T14:31:04.024Z,30.30
2018-07-23T14:36:07.224Z,30.30
2018-07-23T14:41:10.428Z,30.30
2018-07-23T14:46:13.619Z,30.30
2018-07-23T14:51:16.822Z,30.40
2018-07-23T14:56:20.147Z,30.40
2018-07-23T15:01:23.351Z,30.40
2018-07-23T15:06:26.551Z,30.50
2018-07-23T15:11:29.747Z,30.50
2018-07-23T15:16:32.957Z,30.50
2018-07-23T15:21:36.107Z,30.50
2018-07-23T15:26:39.304Z,30.50
2018-07-23T15:31:42.483Z,30.50
2018-07-23T15:36:45.667Z,30.50
2018-07-23T15:46:51.831Z,30.50
2018-07-23T15:51:55.050Z,30.50
2018-07-23T15:56:58.183Z,30.50
2018-07-23T16:02:01.359Z,30.50
2018-07-23T16:07:04.534Z,30.50
2018-07-23T16:12:07.720Z,30.50
2018-07-23T16:17:10.903Z,30.50
2018-07-23T16:22:14.086Z,30.60
2018-07-23T16:27:17.479Z,30.50
2018-07-23T16:32:20.666Z,30.50
2018-07-23T16:37:23.846Z,30.50
2018-07-23T16:42:27.030Z,30.60
2018-07-23T16:47:30.219Z,30.50
2018-07-23T16:52:33.428Z,30.50
2018-07-23T16:57:36.572Z,30.50
2018-07-23T17:02:39.738Z,30.50
2018-07-23T17:07:42.913Z,30.40
2018-07-23T17:12:46.126Z,30.40
2018-07-23T17:17:49.377Z,30.30
2018-07-23T17:22:52.523Z,30.30
2018-07-23T17:27:55.706Z,30.30
2018-07-23T17:32:58.896Z,30.30
2018-07-23T17:38:02.083Z,30.30
2018-07-23T17:43:05.670Z,30.30
2018-07-23T17:48:08.858Z,30.30
2018-07-23T17:53:12.059Z,30.30
2018-07-23T17:58:15.250Z,30.40
2018-07-23T18:03:18.443Z,30.30
2018-07-23T18:08:21.634Z,30.30
2018-07-23T18:13:24.857Z,30.40
2018-07-23T18:18:28.067Z,30.40
2018-07-23T18:23:31.265Z,30.30
2018-07-23T18:28:34.525Z,30.30
2018-07-23T18:33:37.675Z,30.20
2018-07-23T18:38:40.973Z,30.10
2018-07-23T18:43:44.091Z,30.10
2018-07-23T18:49:32.874Z,30.00
2018-07-23T18:54:36.602Z,29.90
2018-07-23T18:59:39.823Z,29.80
2018-07-23T19:04:43.007Z,29.80
2018-07-23T19:09:46.208Z,29.80
2018-07-23T19:14:49.419Z,29.80
2018-07-23T19:19:52.590Z,29.70
2018-07-23T19:24:55.778Z,29.60
2018-07-23T19:29:58.954Z,29.60
2018-07-23T19:35:02.139Z,29.60
2018-07-23T19:40:05.326Z,29.50
2018-07-23T19:45:08.515Z,29.40
2018-07-23T19:50:11.695Z,29.30
2018-07-23T19:55:14.875Z,29.30
2018-07-23T20:00:18.058Z,29.20
2018-07-23T20:05:21.239Z,29.20
2018-07-23T20:10:25.671Z,29.10
2018-07-23T20:15:28.875Z,29.10
2018-07-23T20:20:32.051Z,29.00
2018-07-23T20:25:35.216Z,29.00
2018-07-23T20:30:38.411Z,28.90
2018-07-23T20:35:41.599Z,28.80
2018-07-23T20:40:44.778Z,28.80
2018-07-23T20:45:47.975Z,28.70
2018-07-23T20:50:51.126Z,28.70
2018-07-23T20:55:54.387Z,28.60
2018-07-23T21:00:57.562Z,28.50
2018-07-23T21:06:00.730Z,28.50
2018-07-23T21:11:03.898Z,28.40
2018-07-23T21:16:07.122Z,28.40
2018-07-23T21:21:10.323Z,28.30
2018-07-23T21:26:13.531Z,28.30
2018-07-23T21:31:16.739Z,28.20
2018-07-23T21:36:19.953Z,28.20
2018-07-23T21:41:23.166Z,28.10
2018-07-23T21:46:26.372Z,28.00
2018-07-23T21:51:29.767Z,28.00
2018-07-23T21:56:32.995Z,27.90
2018-07-23T22:01:36.196Z,27.90
2018-07-23T22:06:39.403Z,27.90
2018-07-23T22:11:42.603Z,27.80
2018-07-23T22:16:45.799Z,27.80
2018-07-23T22:21:48.975Z,27.70
2018-07-23T22:26:52.159Z,27.70
2018-07-23T22:31:55.334Z,27.60
2018-07-23T22:36:58.510Z,27.60
2018-07-23T22:42:01.701Z,27.50
2018-07-23T22:47:05.338Z,27.50
2018-07-23T22:52:08.523Z,27.40
2018-07-23T22:57:11.698Z,27.40
2018-07-23T23:02:14.882Z,27.30
2018-07-23T23:07:18.059Z,27.30
2018-07-23T23:12:21.242Z,27.30
2018-07-23T23:17:24.423Z,27.20
2018-07-23T23:22:27.606Z,27.10
2018-07-23T23:27:30.792Z,27.10
2018-07-23T23:32:33.950Z,27.10
2018-07-23T23:37:37.119Z,27.00
2018-07-23T23:42:40.285Z,27.00
2018-07-23T23:47:43.595Z,26.90
2018-07-23T23:52:46.782Z,26.90
2018-07-23T23:57:49.962Z,26.90
